Time;durP1;ratioP1;P1;durP2;ratioP2;P2;SDS_P1;SDS_P2;PMS_P1;PMS_P2;Temp;Humidity;BMP_temperature;BMP_pressure;BME280_temperature;BME280_humidity;BME280_pressure;Samples;Min_cycle;Max_cycle;Signal;HPM_P1;HPM_P2
2022/03/17 00:01:52;;;;;;;40.27;33.90;;;;;;;2.70;100.00;100517.00;4913021;29;20245;-77
2022/03/17 00:04:21;;;;;;;39.23;34.47;;;;;;;2.64;100.00;100517.59;4915622;29;20313;-77
2022/03/17 00:06:48;;;;;;;40.00;33.67;;;;;;;2.60;100.00;100516.22;4914236;29;20248;-76
2022/03/17 00:09:15;;;;;;;40.70;34.17;;;;;;;2.59;100.00;100527.78;4902577;29;20226;-77
2022/03/17 00:11:42;;;;;;;40.43;34.93;;;;;;;2.53;100.00;100517.75;4907006;29;20274;-76
2022/03/17 00:14:09;;;;;;;41.50;36.33;;;;;;;2.49;100.00;100514.59;4905014;29;20253;-77
2022/03/17 00:16:36;;;;;;;46.60;37.33;;;;;;;2.42;100.00;100505.59;4905118;29;20253;-77
2022/03/17 00:19:03;;;;;;;43.50;36.80;;;;;;;2.38;100.00;100492.81;4910231;29;20234;-77
2022/03/17 00:21:29;;;;;;;44.30;36.40;;;;;;;2.30;100.00;100488.22;4906157;29;20245;-76
2022/03/17 00:23:56;;;;;;;42.87;36.33;;;;;;;2.24;100.00;100494.09;4906030;29;20270;-77
2022/03/17 00:26:23;;;;;;;43.07;36.13;;;;;;;2.20;100.00;100488.25;4905074;29;20243;-77
2022/03/17 00:28:50;;;;;;;46.17;38.40;;;;;;;2.11;100.00;100490.94;4906455;29;20249;-76
2022/03/17 00:31:17;;;;;;;44.00;38.00;;;;;;;2.06;100.00;100483.44;4907250;29;20227;-74
2022/03/17 00:33:44;;;;;;;43.43;38.07;;;;;;;2.01;100.00;100488.31;4902762;29;20246;-74
2022/03/17 00:36:11;;;;;;;46.57;37.73;;;;;;;1.95;100.00;100485.44;4902235;29;20622;-74
2022/03/17 00:38:38;;;;;;;44.60;37.80;;;;;;;1.92;100.00;100494.47;4905093;29;20273;-74
2022/03/17 00:41:05;;;;;;;46.07;38.13;;;;;;;1.93;100.00;100496.16;4907110;29;20301;-74
2022/03/17 00:43:34;;;;;;;46.97;38.23;;;;;;;1.96;100.00;100501.13;4903052;29;20289;-75
2022/03/17 00:46:01;;;;;;;45.30;37.80;;;;;;;1.87;100.00;100499.34;4902314;29;20233;-73
2022/03/17 00:48:29;;;;;;;45.23;38.87;;;;;;;1.81;100.00;100507.03;4908203;29;20293;-74
2022/03/17 00:50:56;;;;;;;46.57;38.30;;;;;;;1.76;100.00;100510.09;4909463;29;20621;-75
2022/03/17 00:53:22;;;;;;;46.60;38.73;;;;;;;1.72;100.00;100504.28;4907145;29;20321;-75
2022/03/17 00:55:49;;;;;;;46.13;38.73;;;;;;;1.70;100.00;100505.38;4905691;29;20781;-75
2022/03/17 00:58:16;;;;;;;45.97;37.40;;;;;;;1.67;100.00;100510.94;4907623;29;20781;-74
2022/03/17 01:00:43;;;;;;;45.83;37.63;;;;;;;1.64;100.00;100512.06;4902949;29;20635;-74
2022/03/17 01:03:10;;;;;;;43.07;36.60;;;;;;;1.59;100.00;100511.63;4910285;29;20230;-74
2022/03/17 01:05:38;;;;;;;44.20;36.83;;;;;;;1.55;100.00;100512.06;4904887;29;20310;-74
2022/03/17 01:08:05;;;;;;;45.30;37.43;;;;;;;1.49;100.00;100510.00;4906889;29;20321;-74
2022/03/17 01:10:32;;;;;;;46.37;37.27;;;;;;;1.41;100.00;100508.03;4899770;29;20316;-74
2022/03/17 01:13:01;;;;;;;44.67;37.70;;;;;;;1.35;100.00;100515.69;4906393;29;20238;-74
2022/03/17 01:15:29;;;;;;;45.93;36.23;;;;;;;1.29;100.00;100517.91;4907876;29;20257;-74
2022/03/17 01:17:56;;;;;;;44.17;36.30;;;;;;;1.20;100.00;100518.75;4908591;29;20325;-75
2022/03/17 01:20:23;;;;;;;46.63;35.73;;;;;;;1.20;100.00;100517.91;4905565;29;20294;-75
2022/03/17 01:22:50;;;;;;;43.87;36.60;;;;;;;1.06;100.00;100516.50;4907743;29;20242;-75
2022/03/17 01:25:17;;;;;;;46.77;36.30;;;;;;;1.01;100.00;100521.38;4909416;29;20230;-75
2022/03/17 01:27:43;;;;;;;43.77;36.60;;;;;;;0.98;100.00;100520.81;4904373;29;20317;-74
2022/03/17 01:30:10;;;;;;;45.27;35.67;;;;;;;0.91;100.00;100519.69;4905913;29;20620;-75
2022/03/17 01:32:40;;;;;;;45.73;35.53;;;;;;;0.90;100.00;100521.47;4904482;29;20245;-74
2022/03/17 01:35:09;;;;;;;47.97;37.87;;;;;;;0.90;100.00;100521.47;4903424;29;20241;-74
2022/03/17 01:37:36;;;;;;;46.93;37.03;;;;;;;0.92;100.00;100531.91;4900995;29;20237;-75
2022/03/17 01:40:03;;;;;;;46.77;36.50;;;;;;;0.88;100.00;100519.00;4908224;29;20254;-74
2022/03/17 01:42:30;;;;;;;46.03;37.07;;;;;;;0.87;100.00;100509.41;4907798;29;20246;-74
2022/03/17 01:44:56;;;;;;;48.67;36.17;;;;;;;0.85;100.00;100508.69;4908065;29;20748;-74
2022/03/17 01:47:29;;;;;;;48.47;36.93;;;;;;;0.85;100.00;100507.84;4905748;29;20260;-75
2022/03/17 01:50:03;;;;;;;46.50;36.53;;;;;;;0.81;100.00;100507.31;4904541;29;20238;-75
2022/03/17 01:52:30;;;;;;;47.27;36.67;;;;;;;0.80;100.00;100500.34;4901838;29;20238;-74
2022/03/17 01:54:57;;;;;;;43.77;36.43;;;;;;;0.77;100.00;100508.53;4904452;29;20334;-74
2022/03/17 01:57:24;;;;;;;43.93;35.67;;;;;;;0.74;100.00;100503.56;4907069;29;20242;-76
2022/03/17 01:59:52;;;;;;;46.77;36.33;;;;;;;0.69;100.00;100500.47;4903615;29;20235;-74
2022/03/17 02:02:19;;;;;;;47.03;36.43;;;;;;;0.72;100.00;100504.63;4908412;29;20317;-75
2022/03/17 02:04:49;;;;;;;47.50;37.30;;;;;;;0.64;100.00;100497.41;4898947;29;20314;-74
2022/03/17 02:07:16;;;;;;;48.67;36.53;;;;;;;0.61;100.00;100502.09;4903861;29;20234;-74
2022/03/17 02:09:44;;;;;;;47.73;36.40;;;;;;;0.54;100.00;100506.25;4903859;29;20266;-76
2022/03/17 02:14:59;;;;;;;47.33;37.20;;;;;;;0.43;100.00;100499.28;4909645;29;20777;-75
2022/03/17 02:17:31;;;;;;;43.97;35.63;;;;;;;0.38;100.00;100498.84;4911179;29;20320;-75
2022/03/17 02:20:02;;;;;;;45.37;35.80;;;;;;;0.34;100.00;100503.56;4911189;29;20227;-75
2022/03/17 02:22:29;;;;;;;45.20;35.57;;;;;;;0.28;100.00;100498.81;4906977;29;20242;-75
2022/03/17 02:27:46;;;;;;;45.33;34.67;;;;;;;0.23;100.00;100510.72;4908837;29;20886;-75
2022/03/17 02:30:18;;;;;;;46.57;36.13;;;;;;;0.19;100.00;100509.31;4910827;29;20230;-75
2022/03/17 02:32:45;;;;;;;43.60;34.20;;;;;;;0.12;100.00;100501.09;4905489;29;20318;-74
2022/03/17 02:35:17;;;;;;;45.03;34.43;;;;;;;0.10;100.00;100499.56;4911844;29;20244;-74
2022/03/17 02:37:44;;;;;;;44.43;34.70;;;;;;;0.06;100.00;100503.41;4900608;29;20280;-76
2022/03/17 02:40:11;;;;;;;43.17;33.80;;;;;;;0.05;100.00;100509.69;4906405;29;20260;-74
2022/03/17 02:42:38;;;;;;;43.00;34.33;;;;;;;-0.02;100.00;100494.38;4906961;29;20234;-75
2022/03/17 02:45:07;;;;;;;43.73;34.90;;;;;;;-0.02;100.00;100507.56;4909745;29;20333;-74
2022/03/17 02:47:34;;;;;;;44.60;34.17;;;;;;;-0.06;100.00;100518.50;4907036;29;20242;-74
2022/03/17 02:50:01;;;;;;;45.60;34.30;;;;;;;0.01;100.00;100522.25;4910143;29;20230;-73
2022/03/17 02:52:29;;;;;;;46.10;34.17;;;;;;;-0.03;100.00;100534.03;4908618;29;20266;-74
2022/03/17 02:54:56;;;;;;;44.43;34.37;;;;;;;0.03;100.00;100537.94;4904496;29;20239;-74
2022/03/17 02:57:23;;;;;;;43.43;33.70;;;;;;;0.00;100.00;100523.25;4908937;29;20249;-74
2022/03/17 02:59:51;;;;;;;44.83;34.37;;;;;;;-0.02;100.00;100528.63;4906521;29;20241;-74
2022/03/17 03:02:21;;;;;;;46.57;34.73;;;;;;;-0.02;100.00;100539.19;4910848;29;20229;-74
2022/03/17 03:04:48;;;;;;;45.90;35.37;;;;;;;0.01;100.00;100540.69;4911483;29;20318;-74
2022/03/17 03:07:14;;;;;;;43.30;34.20;;;;;;;0.03;100.00;100541.41;4911052;29;20325;-74
2022/03/17 03:09:42;;;;;;;45.03;34.47;;;;;;;0.03;100.00;100548.50;4904681;29;20329;-74
2022/03/17 03:12:09;;;;;;;45.30;35.63;;;;;;;-0.04;100.00;100549.00;4910316;29;20317;-74
2022/03/17 03:14:36;;;;;;;42.33;34.47;;;;;;;-0.07;100.00;100551.06;4904576;29;20246;-75
2022/03/17 03:17:03;;;;;;;47.00;35.23;;;;;;;-0.09;100.00;100555.59;4906246;29;20337;-75
2022/03/17 03:19:30;;;;;;;45.00;34.57;;;;;;;-0.10;100.00;100560.06;4910488;29;20240;-74
2022/03/17 03:21:57;;;;;;;44.90;34.97;;;;;;;-0.14;100.00;100555.19;4908658;29;20392;-75
2022/03/17 03:24:24;;;;;;;48.20;34.60;;;;;;;-0.09;100.00;100558.25;4910793;29;20238;-75
2022/03/17 03:26:52;;;;;;;43.27;33.50;;;;;;;-0.13;100.00;100552.41;4908169;29;20234;-76
2022/03/17 03:29:22;;;;;;;45.17;33.93;;;;;;;-0.14;100.00;100557.81;4908260;29;20229;-75
2022/03/17 03:31:51;;;;;;;45.00;33.97;;;;;;;-0.13;100.00;100564.75;4911006;29;20270;-75
2022/03/17 03:34:19;;;;;;;45.13;35.03;;;;;;;-0.13;100.00;100560.31;4910198;29;20286;-74
2022/03/17 03:39:33;;;;;;;45.17;34.80;;;;;;;-0.14;100.00;100555.19;4905835;29;20238;-74
2022/03/17 03:42:00;;;;;;;46.97;34.83;;;;;;;-0.12;100.00;100556.72;4908126;29;20249;-73
2022/03/17 03:44:27;;;;;;;44.60;33.90;;;;;;;-0.16;100.00;100555.31;4908640;29;20325;-73
2022/03/17 03:46:54;;;;;;;45.77;34.70;;;;;;;-0.15;100.00;100558.78;4901785;29;20290;-76
2022/03/17 03:49:21;;;;;;;44.80;35.10;;;;;;;-0.17;100.00;100555.44;4907999;29;20293;-75
2022/03/17 03:51:48;;;;;;;43.50;34.33;;;;;;;-0.19;100.00;100560.84;4907699;29;20245;-74
2022/03/17 03:54:18;;;;;;;44.00;34.17;;;;;;;-0.19;100.00;100552.09;4904937;29;20242;-75
2022/03/17 03:56:49;;;;;;;46.50;35.50;;;;;;;-0.16;100.00;100557.09;4903474;29;20237;-74
2022/03/17 04:01:47;;;;;;;44.57;34.03;;;;;;;-0.15;100.00;100562.25;4903717;29;20257;-76
2022/03/17 04:04:17;;;;;;;45.53;34.30;;;;;;;-0.15;100.00;100556.16;4906074;29;20234;-75
2022/03/17 04:06:47;;;;;;;45.73;34.93;;;;;;;-0.15;100.00;100551.72;4905980;29;20265;-75
2022/03/17 04:09:15;;;;;;;44.50;33.93;;;;;;;-0.15;100.00;100556.16;4907735;29;20653;-74
2022/03/17 04:11:43;;;;;;;48.67;35.63;;;;;;;-0.14;100.00;100563.09;4905824;29;20230;-75
2022/03/17 04:14:10;;;;;;;44.10;34.30;;;;;;;-0.13;100.00;100570.00;4903861;29;20269;-75
2022/03/17 04:16:37;;;;;;;44.70;34.83;;;;;;;-0.14;100.00;100563.91;4909046;29;20261;-75
2022/03/17 04:19:04;;;;;;;46.00;35.03;;;;;;;-0.14;100.00;100563.09;4908365;29;20238;-75
2022/03/17 04:21:32;;;;;;;45.03;34.17;;;;;;;-0.13;100.00;100572.63;4905130;29;20341;-75
2022/03/17 04:23:59;;;;;;;49.20;35.70;;;;;;;-0.15;100.00;100564.88;4905675;29;20235;-75
2022/03/17 04:26:26;;;;;;;44.20;34.70;;;;;;;-0.16;100.00;100563.22;4902120;29;20241;-74
2022/03/17 04:28:53;;;;;;;43.07;33.87;;;;;;;-0.19;100.00;100562.63;4904755;29;20242;-74
2022/03/17 04:31:20;;;;;;;45.83;34.83;;;;;;;-0.20;100.00;100564.44;4907280;29;20236;-75
2022/03/17 04:33:48;;;;;;;44.63;34.47;;;;;;;-0.22;100.00;100576.03;4905218;29;20238;-74
2022/03/17 04:36:15;;;;;;;44.70;35.43;;;;;;;-0.20;100.00;100579.41;4907238;29;20712;-74
2022/03/17 04:38:42;;;;;;;47.03;36.00;;;;;;;-0.22;100.00;100587.41;4903632;29;20234;-74
2022/03/17 04:41:11;;;;;;;45.03;34.10;;;;;;;-0.23;100.00;100590.16;4907631;29;20246;-75
2022/03/17 04:43:39;;;;;;;46.53;35.13;;;;;;;-0.30;100.00;100596.91;4905050;29;20250;-74
2022/03/17 04:46:09;;;;;;;45.30;34.30;;;;;;;-0.27;100.00;100589.59;4907595;29;20321;-75
2022/03/17 04:48:37;;;;;;;48.97;35.83;;;;;;;-0.25;100.00;100592.94;4909396;29;20238;-75
2022/03/17 04:51:05;;;;;;;49.33;36.87;;;;;;;-0.23;100.00;100592.81;4907554;29;20297;-75
2022/03/17 04:53:32;;;;;;;51.80;36.97;;;;;;;-0.16;100.00;100588.72;4907373;29;20260;-75
2022/03/17 04:56:10;;;;;;;52.30;36.23;;;;;;;-0.09;100.00;100600.41;4904835;29;20242;-75
2022/03/17 04:58:40;;;;;;;47.73;35.30;;;;;;;-0.09;100.00;100595.97;4904742;29;20240;-75
2022/03/17 05:01:08;;;;;;;50.97;36.70;;;;;;;-0.09;100.00;100598.59;4904677;29;20266;-75
2022/03/17 05:03:36;;;;;;;47.30;35.10;;;;;;;-0.05;100.00;100605.28;4907683;29;20270;-74
2022/03/17 05:06:03;;;;;;;48.77;36.43;;;;;;;-0.12;100.00;100611.19;4905688;29;20242;-76
2022/03/17 05:08:34;;;;;;;51.63;37.10;;;;;;;-0.11;100.00;100610.25;4907683;29;20241;-74
2022/03/17 05:11:01;;;;;;;47.33;35.97;;;;;;;-0.12;100.00;100614.66;4904937;29;20230;-75
2022/03/17 05:13:28;;;;;;;47.13;35.83;;;;;;;-0.07;100.00;100603.75;4904143;29;20238;-74
2022/03/17 05:15:54;;;;;;;45.83;34.90;;;;;;;-0.16;100.00;100604.50;4906387;29;20733;-74
2022/03/17 05:18:22;;;;;;;45.63;34.80;;;;;;;-0.17;100.00;100613.38;4906469;29;20273;-75
2022/03/17 05:20:48;;;;;;;48.77;35.83;;;;;;;-0.07;100.00;100614.28;4907455;29;20709;-75
2022/03/17 05:23:17;;;;;;;47.37;34.47;;;;;;;-0.03;100.00;100621.81;4906259;29;20238;-75
2022/03/17 05:25:46;;;;;;;51.40;37.00;;;;;;;0.04;100.00;100611.59;4907791;29;20246;-75
2022/03/17 05:28:12;;;;;;;47.97;35.50;;;;;;;0.14;100.00;100615.09;4905293;29;20726;-74
2022/03/17 05:30:40;;;;;;;49.27;35.97;;;;;;;0.23;100.00;100618.78;4908524;29;20330;-74
2022/03/17 05:33:08;;;;;;;47.87;35.47;;;;;;;0.32;100.00;100620.66;4905088;29;20243;-75
2022/03/17 05:35:40;;;;;;;47.97;36.00;;;;;;;0.36;100.00;100619.41;4907599;29;20238;-75
2022/03/17 05:38:07;;;;;;;46.00;35.00;;;;;;;0.44;100.00;100622.22;4904403;29;20304;-75
2022/03/17 05:40:34;;;;;;;45.40;35.27;;;;;;;0.47;100.00;100618.53;4908855;29;20306;-74
2022/03/17 05:43:06;;;;;;;46.27;34.17;;;;;;;0.46;100.00;100619.47;4904283;29;20610;-75
2022/03/17 05:45:34;;;;;;;45.37;34.20;;;;;;;0.52;100.00;100618.94;4911255;29;20237;-75
2022/03/17 05:48:03;;;;;;;45.00;34.70;;;;;;;0.57;100.00;100628.13;4901426;29;20286;-74
2022/03/17 05:50:34;;;;;;;46.03;34.97;;;;;;;0.70;100.00;100630.56;4908426;29;20272;-75
2022/03/17 05:53:01;;;;;;;46.50;36.43;;;;;;;0.73;100.00;100631.13;4906414;29;20237;-75
2022/03/17 05:55:28;;;;;;;49.03;37.00;;;;;;;0.94;100.00;100638.13;4910011;29;20246;-76
2022/03/17 05:57:57;;;;;;;44.97;35.50;;;;;;;0.94;100.00;100638.97;4907635;29;20241;-75
2022/03/17 06:00:26;;;;;;;43.33;34.60;;;;;;;1.09;100.00;100639.44;4910169;29;20242;-75
2022/03/17 06:02:53;;;;;;;47.10;34.67;;;;;;;1.15;100.00;100645.03;4904763;29;20246;-74
2022/03/17 06:05:20;;;;;;;46.43;35.83;;;;;;;1.22;100.00;100650.59;4910873;29;20254;-74
2022/03/17 06:07:49;;;;;;;46.57;37.27;;;;;;;1.38;100.00;100644.78;4908361;29;20257;-74
2022/03/17 06:10:19;;;;;;;48.90;36.70;;;;;;;1.42;100.00;100644.38;4906013;29;20250;-74
2022/03/17 06:12:48;;;;;;;48.23;36.20;;;;;;;1.59;100.00;100648.16;4911279;29;20238;-74
2022/03/17 06:15:15;;;;;;;47.00;36.87;;;;;;;1.71;100.00;100642.63;4908557;29;20306;-74
2022/03/17 06:17:45;;;;;;;50.77;37.30;;;;;;;1.83;100.00;100653.88;4911453;29;20285;-74
2022/03/17 06:20:13;;;;;;;46.17;36.50;;;;;;;1.93;100.00;100649.44;4907900;29;20711;-74
2022/03/17 06:22:41;;;;;;;50.23;38.33;;;;;;;2.09;100.00;100659.44;4910783;29;20290;-76
2022/03/17 06:25:10;;;;;;;49.33;38.23;;;;;;;2.28;100.00;100653.31;4907585;29;20322;-75
2022/03/17 06:27:37;;;;;;;50.97;38.57;;;;;;;2.40;100.00;100652.16;4910869;29;20233;-74
2022/03/17 06:30:06;;;;;;;50.43;38.67;;;;;;;2.54;100.00;100654.34;4906793;29;20290;-75
2022/03/17 06:32:39;;;;;;;49.40;38.80;;;;;;;2.66;100.00;100653.19;4909278;29;20272;-75
2022/03/17 06:35:08;;;;;;;47.77;38.93;;;;;;;2.82;100.00;100663.19;4906669;29;20240;-74
2022/03/17 06:37:35;;;;;;;49.67;40.70;;;;;;;3.00;100.00;100654.34;4907012;29;20328;-75
2022/03/17 06:40:03;;;;;;;53.40;40.87;;;;;;;3.18;100.00;100651.72;4909109;29;20798;-74
2022/03/17 06:42:30;;;;;;;51.73;40.73;;;;;;;3.33;100.00;100660.03;4903613;29;20246;-75
2022/03/17 06:44:57;;;;;;;59.07;41.83;;;;;;;3.49;100.00;100658.41;4907020;29;20246;-75
2022/03/17 06:47:24;;;;;;;55.60;42.27;;;;;;;3.71;100.00;100661.59;4908889;29;20329;-74
2022/03/17 06:49:51;;;;;;;51.37;40.80;;;;;;;3.84;100.00;100656.75;4909216;29;20616;-74
2022/03/17 06:52:18;;;;;;;52.73;42.20;;;;;;;4.08;100.00;100650.84;4907620;29;20314;-75
2022/03/17 06:54:45;;;;;;;53.30;43.47;;;;;;;4.34;100.00;100655.19;4908480;29;20328;-74
2022/03/17 06:57:17;;;;;;;54.83;43.50;;;;;;;4.53;100.00;100658.63;4907878;29;20639;-74
2022/03/17 06:59:45;;;;;;;49.50;39.93;;;;;;;4.75;100.00;100663.44;4911157;29;20250;-74
2022/03/17 07:02:12;;;;;;;48.00;37.50;;;;;;;4.92;100.00;100661.69;4906342;29;20234;-75
2022/03/17 07:04:40;;;;;;;43.93;36.53;;;;;;;5.08;100.00;100670.59;4907709;29;20234;-74
2022/03/17 07:07:07;;;;;;;43.97;35.67;;;;;;;5.21;100.00;100672.78;4906235;29;20294;-74
2022/03/17 07:09:35;;;;;;;42.67;36.23;;;;;;;5.28;100.00;100665.81;4908945;29;20257;-74
2022/03/17 07:12:02;;;;;;;39.37;34.37;;;;;;;5.45;100.00;100672.06;4907969;29;20341;-77
2022/03/17 07:14:29;;;;;;;43.40;35.40;;;;;;;5.61;100.00;100667.59;4910012;29;20250;-77
2022/03/17 07:16:56;;;;;;;40.97;35.97;;;;;;;5.75;100.00;100663.47;4907906;29;20329;-76
2022/03/17 07:19:22;;;;;;;41.87;34.80;;;;;;;5.87;100.00;100659.56;4908261;29;20238;-77
2022/03/17 07:21:52;;;;;;;40.07;34.67;;;;;;;6.02;100.00;100667.72;4907623;29;20231;-77
2022/03/17 07:24:18;;;;;;;39.27;34.67;;;;;;;6.15;100.00;100660.06;4909575;29;20325;-77
2022/03/17 07:26:46;;;;;;;41.83;35.07;;;;;;;6.32;100.00;100666.22;4913360;29;20619;-77
2022/03/17 07:29:12;;;;;;;40.37;34.77;;;;;;;6.48;100.00;100664.38;4906621;29;20325;-79
2022/03/17 07:31:39;;;;;;;40.27;34.83;;;;;;;6.61;100.00;100667.38;4907562;29;20317;-78
2022/03/17 07:34:06;;;;;;;39.53;34.03;;;;;;;6.78;100.00;100668.16;4908015;29;20781;-78
2022/03/17 07:36:33;;;;;;;38.67;34.13;;;;;;;6.88;100.00;100667.97;4906054;29;20651;-79
2022/03/17 07:39:03;;;;;;;44.23;34.50;;;;;;;7.06;100.00;100680.06;4902379;29;20241;-75
2022/03/17 07:41:31;;;;;;;40.20;34.43;;;;;;;7.32;100.00;100685.16;4907951;29;20242;-75
2022/03/17 07:44:00;;;;;;;43.17;35.83;;;;;;;7.52;100.00;100678.38;4895728;29;20250;-75
2022/03/17 07:46:50;;;;;;;41.47;34.10;;;;;;;7.73;100.00;100688.44;4864512;29;20234;-75
2022/03/17 07:49:35;;;;;;;40.50;34.17;;;;;;;7.95;100.00;100684.13;4893090;29;20242;-75
2022/03/17 07:52:02;;;;;;;40.70;35.43;;;;;;;8.11;100.00;100686.69;4890476;29;20231;-75
2022/03/17 07:54:29;;;;;;;38.33;33.97;;;;;;;8.12;100.00;100691.00;4885603;29;20245;-75
2022/03/17 07:56:57;;;;;;;40.10;35.37;;;;;;;8.43;100.00;100696.31;4894500;29;20896;-75
2022/03/17 07:59:24;;;;;;;48.17;42.00;;;;;;;8.64;100.00;100693.78;4897453;29;20783;-76
2022/03/17 08:01:51;;;;;;;41.03;36.17;;;;;;;8.64;100.00;100688.44;4893543;29;20365;-78
2022/03/17 08:04:18;;;;;;;41.70;37.30;;;;;;;8.77;100.00;100687.84;4893626;29;20231;-78
2022/03/17 08:06:45;;;;;;;47.70;39.93;;;;;;;8.92;100.00;100694.00;4894686;29;20250;-78
2022/03/17 08:09:12;;;;;;;63.67;45.60;;;;;;;9.07;100.00;100697.53;4900406;29;20279;-79
2022/03/17 08:11:38;;;;;;;47.77;39.10;;;;;;;9.30;100.00;100702.78;4906202;29;20668;-77
2022/03/17 08:14:05;;;;;;;41.23;35.90;;;;;;;9.40;100.00;100708.66;4901038;29;20736;-77
2022/03/17 08:16:32;;;;;;;39.73;35.43;;;;;;;9.69;100.00;100702.47;4899349;29;20227;-78
2022/03/17 08:19:03;;;;;;;37.97;33.87;;;;;;;9.95;100.00;100704.59;4892160;29;20234;-78
2022/03/17 08:21:31;;;;;;;37.77;33.80;;;;;;;10.05;100.00;100708.63;4906958;29;20800;-78
2022/03/17 08:23:57;;;;;;;37.73;33.80;;;;;;;10.20;100.00;100705.09;4900137;29;20592;-77
2022/03/17 08:26:24;;;;;;;38.30;34.20;;;;;;;10.32;100.00;100704.38;4903805;29;20632;-77
2022/03/17 08:28:51;;;;;;;38.17;34.03;;;;;;;10.34;100.00;100697.00;4895833;29;20727;-78
2022/03/17 08:31:18;;;;;;;38.37;34.17;;;;;;;10.51;100.00;100698.38;4907540;29;20230;-78
2022/03/17 08:33:45;;;;;;;38.50;34.40;;;;;;;10.70;100.00;100715.63;4903246;29;20237;-78
2022/03/17 08:36:13;;;;;;;39.73;35.60;;;;;;;10.83;100.00;100729.16;4899595;29;20223;-76
2022/03/17 08:38:39;;;;;;;38.07;33.73;;;;;;;10.94;100.00;100704.50;4902503;29;20233;-77
2022/03/17 08:41:06;;;;;;;38.00;33.90;;;;;;;11.23;98.49;100702.59;4901689;29;20330;-76
2022/03/17 08:43:33;;;;;;;38.53;34.27;;;;;;;11.34;95.33;100707.41;4906131;29;20265;-76
2022/03/17 08:51:30;;;;;;;37.83;33.97;;;;;;;11.22;97.24;100704.47;4907885;29;20318;-76
2022/03/17 08:53:57;;;;;;;38.23;34.07;;;;;;;11.48;96.73;100704.59;4901995;29;20658;-76
2022/03/17 08:56:24;;;;;;;38.40;34.53;;;;;;;11.74;94.72;100703.09;4904060;29;20699;-77
2022/03/17 08:58:51;;;;;;;39.77;35.53;;;;;;;11.96;92.28;100706.44;4908457;29;20240;-77
2022/03/17 09:01:17;;;;;;;40.00;35.77;;;;;;;12.03;88.90;100715.38;4907247;29;20239;-76
2022/03/17 09:03:44;;;;;;;38.83;34.77;;;;;;;12.04;89.85;100707.09;4901711;29;20262;-76
2022/03/17 09:06:12;;;;;;;38.47;34.50;;;;;;;12.13;88.92;100716.59;4910869;29;20668;-76
2022/03/17 09:08:41;;;;;;;40.73;36.60;;;;;;;11.59;91.36;100713.94;4904910;29;20269;-77
2022/03/17 09:11:12;;;;;;;38.07;34.03;;;;;;;11.89;92.36;100722.56;4907927;29;20277;-76
2022/03/17 09:13:39;;;;;;;38.50;34.67;;;;;;;12.02;92.18;100727.13;4906330;29;20242;-76
2022/03/17 09:16:06;;;;;;;37.30;33.27;;;;;;;12.17;89.61;100725.13;4908858;29;20301;-78
2022/03/17 09:18:33;;;;;;;37.90;34.03;;;;;;;12.31;87.24;100733.00;4912644;29;20246;-77
2022/03/17 09:21:00;;;;;;;38.47;34.57;;;;;;;12.52;84.69;100728.47;4909692;29;20234;-77
2022/03/17 09:23:30;;;;;;;39.47;35.23;;;;;;;12.40;85.63;100730.94;4906245;29;20247;-78
2022/03/17 09:25:57;;;;;;;36.93;33.07;;;;;;;12.75;82.94;100736.94;4908477;29;20240;-77
2022/03/17 09:28:26;;;;;;;38.43;34.40;;;;;;;12.94;82.06;100725.34;4909240;29;20242;-78
2022/03/17 09:30:53;;;;;;;37.40;33.67;;;;;;;13.05;80.53;100727.44;4907491;29;20262;-77
2022/03/17 09:33:25;;;;;;;37.30;33.43;;;;;;;13.19;78.75;100723.72;4910962;29;20225;-76
2022/03/17 09:35:53;;;;;;;38.20;34.30;;;;;;;13.36;76.22;100721.38;4904355;29;20620;-77
2022/03/17 09:38:20;;;;;;;36.00;32.50;;;;;;;13.51;73.63;100723.81;4913693;29;20788;-77
2022/03/17 09:40:47;;;;;;;37.10;33.37;;;;;;;13.60;73.55;100728.75;4901686;29;20266;-76
2022/03/17 09:43:21;;;;;;;36.33;32.77;;;;;;;13.70;73.95;100725.63;4903985;29;20258;-77
2022/03/17 09:45:54;;;;;;;36.10;32.20;;;;;;;13.46;74.09;100727.16;4903154;29;20238;-77
2022/03/17 09:48:23;;;;;;;37.40;33.37;;;;;;;13.59;73.67;100732.50;4911487;29;20242;-77
2022/03/17 09:50:56;;;;;;;36.07;32.30;;;;;;;13.48;72.70;100729.66;4902217;29;20305;-77
2022/03/17 09:53:26;;;;;;;35.00;31.17;;;;;;;13.75;71.79;100728.50;4908445;29;20241;-78
2022/03/17 09:55:53;;;;;;;34.03;30.43;;;;;;;13.90;68.80;100730.94;4910199;29;20253;-77
2022/03/17 09:58:20;;;;;;;31.93;28.60;;;;;;;14.01;67.46;100722.97;4908112;29;20231;-77
2022/03/17 10:00:52;;;;;;;31.77;28.53;;;;;;;14.05;65.67;100724.19;4912224;29;20227;-78
2022/03/17 10:03:26;;;;;;;31.47;28.23;;;;;;;14.10;66.41;100720.84;4911190;29;20581;-77
2022/03/17 10:05:55;;;;;;;31.00;27.80;;;;;;;14.52;63.76;100719.38;4906790;29;20250;-77
2022/03/17 10:08:23;;;;;;;29.33;26.37;;;;;;;14.30;60.05;100718.03;4911494;29;20297;-77
2022/03/17 10:10:54;;;;;;;24.33;21.83;;;;;;;14.53;54.76;100718.31;4902216;29;20238;-78
2022/03/17 10:13:23;;;;;;;23.83;21.40;;;;;;;14.66;49.11;100720.09;4911460;29;20238;-77
2022/03/17 10:16:09;;;;;;;22.50;20.10;;;;;;;14.68;44.91;100718.84;4911479;29;20240;-77
2022/03/17 10:18:37;;;;;;;20.50;18.30;;;;;;;14.64;41.88;100720.31;4909856;29;20238;-77
2022/03/17 10:21:15;;;;;;;21.07;19.07;;;;;;;14.56;42.25;100717.09;4906952;29;20595;-78
2022/03/17 10:24:08;;;;;;;21.77;19.50;;;;;;;14.54;40.91;100730.78;4905841;29;20753;-78
2022/03/17 10:26:43;;;;;;;22.10;19.73;;;;;;;14.26;41.49;100722.22;4910277;29;20730;-78
2022/03/17 10:29:15;;;;;;;23.43;20.27;;;;;;;14.17;42.89;100727.03;4910456;29;21048;-77
2022/03/17 10:32:07;;;;;;;22.80;20.40;;;;;;;14.24;41.41;100724.28;4913188;29;20265;-77
2022/03/17 10:34:46;;;;;;;22.07;19.77;;;;;;;14.42;41.65;100725.25;4907905;29;20243;-77
2022/03/17 10:37:15;;;;;;;22.23;19.93;;;;;;;14.49;39.51;100719.81;4914757;29;20240;-77
2022/03/17 10:39:56;;;;;;;22.40;20.10;;;;;;;14.72;39.52;100709.25;4907375;29;20234;-78
2022/03/17 10:42:27;;;;;;;24.13;21.57;;;;;;;14.68;40.18;100718.00;4905109;29;20342;-78
2022/03/17 10:45:00;;;;;;;23.17;20.93;;;;;;;14.45;39.73;100714.03;4904123;29;20234;-78
2022/03/17 10:47:33;;;;;;;23.50;21.10;;;;;;;14.65;40.07;100716.56;4907115;29;20242;-78
2022/03/17 10:50:07;;;;;;;23.87;21.37;;;;;;;14.43;38.95;100718.81;4912779;29;20242;-77
2022/03/17 10:52:56;;;;;;;23.23;20.77;;;;;;;14.50;38.71;100711.50;4909049;29;20784;-77
2022/03/17 10:55:30;;;;;;;22.03;19.83;;;;;;;14.52;37.13;100714.81;4911741;29;20841;-78
2022/03/17 10:58:13;;;;;;;22.67;20.20;;;;;;;14.24;35.50;100713.50;4913456;29;20240;-78
2022/03/17 11:00:53;;;;;;;23.17;20.73;;;;;;;14.16;36.88;100709.22;4909144;29;21105;-78
2022/03/17 11:03:22;;;;;;;22.27;19.97;;;;;;;14.26;36.31;100712.28;4913173;29;20736;-77
2022/03/17 11:05:51;;;;;;;23.30;20.03;;;;;;;14.24;36.18;100713.50;4905691;29;20235;-78
2022/03/17 11:08:21;;;;;;;21.03;18.87;;;;;;;14.17;33.68;100704.66;4913709;29;20277;-78
2022/03/17 11:10:49;;;;;;;20.00;17.93;;;;;;;14.32;33.97;100697.09;4915888;29;20242;-78
2022/03/17 11:13:16;;;;;;;20.17;18.07;;;;;;;14.29;32.57;100703.75;4907534;29;20227;-78
2022/03/17 11:15:48;;;;;;;22.27;19.13;;;;;;;14.34;32.60;100712.00;4908900;29;20297;-78
2022/03/17 11:18:17;;;;;;;20.27;18.07;;;;;;;14.33;32.47;100694.16;4910478;29;20325;-78
2022/03/17 11:20:45;;;;;;;20.17;17.97;;;;;;;14.32;32.54;100692.53;4909013;29;20237;-78
2022/03/17 11:23:25;;;;;;;19.70;17.60;;;;;;;14.37;32.75;100697.31;4904600;29;20235;-77
2022/03/17 11:25:55;;;;;;;18.20;16.27;;;;;;;14.30;31.83;100704.56;4910744;29;20699;-78
2022/03/17 11:28:40;;;;;;;18.50;16.57;;;;;;;14.26;31.32;100700.66;4902667;29;20238;-78
2022/03/17 11:31:08;;;;;;;17.87;16.00;;;;;;;14.27;31.17;100705.84;4908120;29;20261;-77